sensor_id;sensor_type;location;lat;lon;timestamp;noise_LAeq;noise_LA_min;noise_LA_max;noise_LA01;noise_LA95
37223;Laerm;28026;48.562;14.440;2023-06-22T00:00:19;37.45;29.92;45.39;;
37223;Laerm;28026;48.562;14.440;2023-06-22T00:02:50;36.93;29.92;40.54;;
37223;Laerm;28026;48.562;14.440;2023-06-22T00:05:21;37.00;30.89;45.51;;
37223;Laerm;28026;48.562;14.440;2023-06-22T00:07:52;37.30;32.35;40.03;;
37223;Laerm;28026;48.562;14.440;2023-06-22T00:10:22;37.43;32.35;42.98;;
37223;Laerm;28026;48.562;14.440;2023-06-22T00:12:53;37.49;32.35;40.71;;
37223;Laerm;28026;48.562;14.440;2023-06-22T00:15:24;37.11;30.89;47.77;;
37223;Laerm;28026;48.562;14.440;2023-06-22T00:17:55;37.28;31.68;40.89;;
37223;Laerm;28026;48.562;14.440;2023-06-22T00:20:28;37.08;31.68;53.26;;
37223;Laerm;28026;48.562;14.440;2023-06-22T00:22:59;36.97;26.91;39.92;;
37223;Laerm;28026;48.562;14.440;2023-06-22T00:25:30;37.16;30.89;42.29;;
37223;Laerm;28026;48.562;14.440;2023-06-22T00:28:03;37.24;31.68;40.71;;
37223;Laerm;28026;48.562;14.440;2023-06-22T00:30:35;37.12;29.92;40.13;;
37223;Laerm;28026;48.562;14.440;2023-06-22T00:33:06;37.13;31.68;40.89;;
37223;Laerm;28026;48.562;14.440;2023-06-22T00:35:38;36.85;30.89;43.19;;
37223;Laerm;28026;48.562;14.440;2023-06-22T00:38:11;36.91;29.92;46.25;;
37223;Laerm;28026;48.562;14.440;2023-06-22T00:40:42;37.22;30.89;42.76;;
37223;Laerm;28026;48.562;14.440;2023-06-22T00:43:14;37.16;32.35;41.30;;
37223;Laerm;28026;48.562;14.440;2023-06-22T00:45:44;37.12;30.89;44.76;;
37223;Laerm;28026;48.562;14.440;2023-06-22T00:48:15;39.29;33.44;43.86;;
37223;Laerm;28026;48.562;14.440;2023-06-22T00:50:47;37.24;32.35;47.55;;
37223;Laerm;28026;48.562;14.440;2023-06-22T00:53:19;37.38;32.35;45.11;;
37223;Laerm;28026;48.562;14.440;2023-06-22T00:55:50;37.45;32.93;41.22;;
37223;Laerm;28026;48.562;14.440;2023-06-22T00:58:24;37.68;30.89;40.98;;
37223;Laerm;28026;48.562;14.440;2023-06-22T01:00:55;38.62;32.58;42.29;;
37223;Laerm;28026;48.562;14.440;2023-06-22T01:03:27;38.82;32.93;45.33;;
37223;Laerm;28026;48.562;14.440;2023-06-22T01:06:10;37.69;30.89;45.36;;
37223;Laerm;28026;48.562;14.440;2023-06-22T01:09:02;38.01;30.89;43.29;;
37223;Laerm;28026;48.562;14.440;2023-06-22T01:11:44;38.69;32.35;44.23;;
37223;Laerm;28026;48.562;14.440;2023-06-22T01:14:27;41.30;33.44;45.66;;
37223;Laerm;28026;48.562;14.440;2023-06-22T01:17:00;37.67;32.35;41.68;;
37223;Laerm;28026;48.562;14.440;2023-06-22T01:19:45;37.66;32.35;42.98;;
37223;Laerm;28026;48.562;14.440;2023-06-22T01:22:18;37.78;32.35;48.15;;
37223;Laerm;28026;48.562;14.440;2023-06-22T01:25:11;37.40;32.00;40.71;;
37223;Laerm;28026;48.562;14.440;2023-06-22T01:28:24;37.37;31.68;40.98;;
37223;Laerm;28026;48.562;14.440;2023-06-22T01:30:57;36.97;31.68;39.92;;
37223;Laerm;28026;48.562;14.440;2023-06-22T01:33:39;37.39;31.68;41.22;;
37223;Laerm;28026;48.562;14.440;2023-06-22T01:36:13;37.93;32.93;41.89;;
37223;Laerm;28026;48.562;14.440;2023-06-22T01:38:46;37.56;32.35;42.82;;
37223;Laerm;28026;48.562;14.440;2023-06-22T01:41:20;40.30;32.93;44.35;;
37223;Laerm;28026;48.562;14.440;2023-06-22T01:43:53;37.18;32.35;44.65;;
37223;Laerm;28026;48.562;14.440;2023-06-22T01:46:24;38.09;32.35;42.35;;
37223;Laerm;28026;48.562;14.440;2023-06-22T01:48:56;38.18;33.44;44.39;;
37223;Laerm;28026;48.562;14.440;2023-06-22T01:51:27;38.35;34.31;41.14;;
37223;Laerm;28026;48.562;14.440;2023-06-22T01:53:58;38.70;33.90;45.94;;
37223;Laerm;28026;48.562;14.440;2023-06-22T01:56:29;38.67;33.44;44.31;;
37223;Laerm;28026;48.562;14.440;2023-06-22T01:59:28;41.41;34.31;46.89;;
37223;Laerm;28026;48.562;14.440;2023-06-22T02:02:10;37.85;32.93;45.45;;
37223;Laerm;28026;48.562;14.440;2023-06-22T02:04:56;43.59;35.36;55.65;;
37223;Laerm;28026;48.562;14.440;2023-06-22T02:08:13;40.57;32.93;51.87;;
37223;Laerm;28026;48.562;14.440;2023-06-22T02:10:51;38.78;34.69;44.51;;
37223;Laerm;28026;48.562;14.440;2023-06-22T02:13:24;39.94;34.31;47.79;;
37223;Laerm;28026;48.562;14.440;2023-06-22T02:15:56;39.32;35.04;45.75;;
37223;Laerm;28026;48.562;14.440;2023-06-22T02:18:27;39.95;35.94;48.63;;
37223;Laerm;28026;48.562;14.440;2023-06-22T02:20:58;40.28;35.66;48.31;;
37223;Laerm;28026;48.562;14.440;2023-06-22T02:23:29;40.68;36.20;48.92;;
37223;Laerm;28026;48.562;14.440;2023-06-22T02:26:02;41.58;36.69;47.91;;
37223;Laerm;28026;48.562;14.440;2023-06-22T02:28:34;41.54;36.20;55.95;;
37223;Laerm;28026;48.562;14.440;2023-06-22T02:31:04;39.46;33.90;48.46;;
37223;Laerm;28026;48.562;14.440;2023-06-22T02:33:35;43.34;36.20;52.25;;
37223;Laerm;28026;48.562;14.440;2023-06-22T02:36:06;40.65;35.04;51.11;;
37223;Laerm;28026;48.562;14.440;2023-06-22T02:38:43;43.32;35.04;62.18;;
37223;Laerm;28026;48.562;14.440;2023-06-22T02:41:18;45.44;35.66;62.72;;
37223;Laerm;28026;48.562;14.440;2023-06-22T02:43:49;44.84;34.69;71.27;;
37223;Laerm;28026;48.562;14.440;2023-06-22T02:46:20;41.91;35.94;49.88;;
37223;Laerm;28026;48.562;14.440;2023-06-22T02:48:51;42.04;36.45;47.46;;
37223;Laerm;28026;48.562;14.440;2023-06-22T02:51:22;41.33;36.45;51.63;;
37223;Laerm;28026;48.562;14.440;2023-06-22T02:53:53;40.40;36.20;58.71;;
37223;Laerm;28026;48.562;14.440;2023-06-22T02:56:28;43.64;37.70;54.39;;
37223;Laerm;28026;48.562;14.440;2023-06-22T02:59:00;43.44;39.70;52.04;;
37223;Laerm;28026;48.562;14.440;2023-06-22T03:01:32;42.96;35.36;56.73;;
37223;Laerm;28026;48.562;14.440;2023-06-22T03:04:10;41.85;35.36;50.38;;
37223;Laerm;28026;48.562;14.440;2023-06-22T03:06:41;42.87;35.66;52.34;;
37223;Laerm;28026;48.562;14.440;2023-06-22T03:09:11;43.42;38.95;50.54;;
37223;Laerm;28026;48.562;14.440;2023-06-22T03:11:43;42.74;36.20;52.51;;
37223;Laerm;28026;48.562;14.440;2023-06-22T03:14:13;42.76;36.91;53.56;;
37223;Laerm;28026;48.562;14.440;2023-06-22T03:16:44;42.81;36.91;53.17;;
37223;Laerm;28026;48.562;14.440;2023-06-22T03:19:15;43.92;36.69;54.17;;
37223;Laerm;28026;48.562;14.440;2023-06-22T03:21:47;43.44;36.91;52.41;;
37223;Laerm;28026;48.562;14.440;2023-06-22T03:24:18;45.38;39.78;54.43;;
37223;Laerm;28026;48.562;14.440;2023-06-22T03:26:49;43.97;37.70;51.49;;
37223;Laerm;28026;48.562;14.440;2023-06-22T03:29:19;42.37;36.69;52.06;;
37223;Laerm;28026;48.562;14.440;2023-06-22T03:31:50;42.63;35.94;52.59;;
37223;Laerm;28026;48.562;14.440;2023-06-22T03:34:21;43.70;37.88;52.05;;
37223;Laerm;28026;48.562;14.440;2023-06-22T03:36:52;42.99;37.88;55.42;;
37223;Laerm;28026;48.562;14.440;2023-06-22T03:39:23;42.42;36.91;53.07;;
37223;Laerm;28026;48.562;14.440;2023-06-22T03:41:54;41.93;36.20;52.03;;
37223;Laerm;28026;48.562;14.440;2023-06-22T03:44:24;42.08;36.45;47.12;;
37223;Laerm;28026;48.562;14.440;2023-06-22T03:46:55;40.83;37.12;48.39;;
37223;Laerm;28026;48.562;14.440;2023-06-22T03:49:26;40.62;35.36;51.43;;
37223;Laerm;28026;48.562;14.440;2023-06-22T03:51:57;39.83;35.36;46.93;;
37223;Laerm;28026;48.562;14.440;2023-06-22T03:54:29;40.66;36.45;48.85;;
37223;Laerm;28026;48.562;14.440;2023-06-22T03:57:00;40.15;36.91;47.24;;
37223;Laerm;28026;48.562;14.440;2023-06-22T03:59:31;40.20;36.20;49.19;;
37223;Laerm;28026;48.562;14.440;2023-06-22T04:02:03;41.57;36.20;54.51;;
37223;Laerm;28026;48.562;14.440;2023-06-22T04:04:34;44.88;40.23;57.83;;
37223;Laerm;28026;48.562;14.440;2023-06-22T04:07:06;43.70;39.08;53.47;;
37223;Laerm;28026;48.562;14.440;2023-06-22T04:09:36;45.53;36.45;59.69;;
37223;Laerm;28026;48.562;14.440;2023-06-22T04:12:08;42.95;37.12;52.87;;
37223;Laerm;28026;48.562;14.440;2023-06-22T04:14:38;43.47;37.35;53.48;;
37223;Laerm;28026;48.562;14.440;2023-06-22T04:17:09;43.83;38.67;60.91;;
37223;Laerm;28026;48.562;14.440;2023-06-22T04:19:40;44.06;38.67;55.05;;
37223;Laerm;28026;48.562;14.440;2023-06-22T04:22:11;42.79;37.88;53.26;;
37223;Laerm;28026;48.562;14.440;2023-06-22T04:24:42;42.55;37.70;54.16;;
37223;Laerm;28026;48.562;14.440;2023-06-22T04:27:13;46.02;37.32;69.83;;
37223;Laerm;28026;48.562;14.440;2023-06-22T04:29:44;42.20;37.32;53.79;;
37223;Laerm;28026;48.562;14.440;2023-06-22T04:32:19;42.84;37.88;52.53;;
37223;Laerm;28026;48.562;14.440;2023-06-22T04:34:50;42.88;38.21;63.54;;
37223;Laerm;28026;48.562;14.440;2023-06-22T04:37:22;43.30;38.52;57.59;;
37223;Laerm;28026;48.562;14.440;2023-06-22T04:39:54;42.46;36.91;57.32;;
37223;Laerm;28026;48.562;14.440;2023-06-22T04:42:28;43.16;39.58;53.72;;
37223;Laerm;28026;48.562;14.440;2023-06-22T04:44:59;43.75;39.58;55.27;;
37223;Laerm;28026;48.562;14.440;2023-06-22T04:47:29;41.82;38.05;54.94;;
37223;Laerm;28026;48.562;14.440;2023-06-22T04:50:00;43.02;38.67;50.37;;
37223;Laerm;28026;48.562;14.440;2023-06-22T04:52:36;42.91;39.58;52.57;;
37223;Laerm;28026;48.562;14.440;2023-06-22T04:55:07;44.99;41.53;61.50;;
37223;Laerm;28026;48.562;14.440;2023-06-22T04:57:39;44.83;40.43;54.94;;
37223;Laerm;28026;48.562;14.440;2023-06-22T05:00:11;43.69;38.95;52.73;;
37223;Laerm;28026;48.562;14.440;2023-06-22T05:02:48;43.34;37.52;51.55;;
37223;Laerm;28026;48.562;14.440;2023-06-22T05:05:21;43.72;36.45;62.85;;
37223;Laerm;28026;48.562;14.440;2023-06-22T05:07:52;41.11;37.52;50.08;;
37223;Laerm;28026;48.562;14.440;2023-06-22T05:10:30;41.47;37.70;56.60;;
37223;Laerm;28026;48.562;14.440;2023-06-22T05:13:00;43.27;38.37;56.52;;
37223;Laerm;28026;48.562;14.440;2023-06-22T05:15:31;42.85;38.67;53.25;;
37223;Laerm;28026;48.562;14.440;2023-06-22T05:18:07;42.54;36.77;61.85;;
37223;Laerm;28026;48.562;14.440;2023-06-22T05:20:38;40.06;36.20;43.86;;
37223;Laerm;28026;48.562;14.440;2023-06-22T05:23:08;41.89;38.21;52.89;;
37223;Laerm;28026;48.562;14.440;2023-06-22T05:25:40;42.08;37.88;53.56;;
37223;Laerm;28026;48.562;14.440;2023-06-22T05:28:10;42.37;37.70;53.37;;
37223;Laerm;28026;48.562;14.440;2023-06-22T05:30:42;42.67;38.18;56.81;;
37223;Laerm;28026;48.562;14.440;2023-06-22T05:33:13;41.59;37.32;52.82;;
37223;Laerm;28026;48.562;14.440;2023-06-22T05:35:43;42.99;38.52;51.98;;
37223;Laerm;28026;48.562;14.440;2023-06-22T05:38:14;41.93;38.81;51.32;;
37223;Laerm;28026;48.562;14.440;2023-06-22T05:40:45;44.22;38.52;54.65;;
37223;Laerm;28026;48.562;14.440;2023-06-22T05:43:16;40.74;37.12;54.66;;
37223;Laerm;28026;48.562;14.440;2023-06-22T05:45:46;42.53;38.21;61.54;;
37223;Laerm;28026;48.562;14.440;2023-06-22T05:48:17;41.76;38.21;55.41;;
37223;Laerm;28026;48.562;14.440;2023-06-22T05:50:48;42.20;37.32;57.32;;
37223;Laerm;28026;48.562;14.440;2023-06-22T05:53:19;40.96;37.52;53.28;;
37223;Laerm;28026;48.562;14.440;2023-06-22T05:55:50;41.76;38.05;61.78;;
37223;Laerm;28026;48.562;14.440;2023-06-22T05:58:21;43.82;39.70;54.94;;
37223;Laerm;28026;48.562;14.440;2023-06-22T06:00:52;40.91;37.87;52.46;;
37223;Laerm;28026;48.562;14.440;2023-06-22T06:03:23;41.20;37.32;57.44;;
37223;Laerm;28026;48.562;14.440;2023-06-22T06:05:53;42.32;37.52;50.96;;
37223;Laerm;28026;48.562;14.440;2023-06-22T06:08:25;43.05;37.88;65.91;;
37223;Laerm;28026;48.562;14.440;2023-06-22T06:10:55;40.72;37.52;58.54;;
37223;Laerm;28026;48.562;14.440;2023-06-22T06:13:27;40.25;36.45;51.75;;
37223;Laerm;28026;48.562;14.440;2023-06-22T06:15:58;40.23;37.12;44.11;;
37223;Laerm;28026;48.562;14.440;2023-06-22T06:18:29;43.05;36.91;50.33;;
37223;Laerm;28026;48.562;14.440;2023-06-22T06:21:00;44.64;39.58;53.63;;
37223;Laerm;28026;48.562;14.440;2023-06-22T06:23:31;43.04;38.81;55.20;;
37223;Laerm;28026;48.562;14.440;2023-06-22T06:26:02;42.46;37.70;47.22;;
37223;Laerm;28026;48.562;14.440;2023-06-22T06:28:33;43.43;40.80;48.91;;
37223;Laerm;28026;48.562;14.440;2023-06-22T06:31:04;43.57;41.06;54.23;;
37223;Laerm;28026;48.562;14.440;2023-06-22T06:33:39;42.80;38.52;51.02;;
37223;Laerm;28026;48.562;14.440;2023-06-22T06:36:10;41.09;37.12;51.46;;
37223;Laerm;28026;48.562;14.440;2023-06-22T06:38:41;43.36;38.60;54.10;;
37223;Laerm;28026;48.562;14.440;2023-06-22T06:41:11;42.81;38.37;52.67;;
37223;Laerm;28026;48.562;14.440;2023-06-22T06:43:42;43.26;38.37;62.10;;
37223;Laerm;28026;48.562;14.440;2023-06-22T06:46:13;43.08;39.92;54.11;;
37223;Laerm;28026;48.562;14.440;2023-06-22T06:48:44;42.67;37.88;53.12;;
37223;Laerm;28026;48.562;14.440;2023-06-22T06:51:15;43.16;39.92;52.29;;
37223;Laerm;28026;48.562;14.440;2023-06-22T06:53:46;42.82;39.58;53.20;;
37223;Laerm;28026;48.562;14.440;2023-06-22T06:56:16;46.53;40.03;63.07;;
37223;Laerm;28026;48.562;14.440;2023-06-22T06:58:50;42.57;38.81;53.04;;
37223;Laerm;28026;48.562;14.440;2023-06-22T07:01:21;43.75;37.32;58.91;;
37223;Laerm;28026;48.562;14.440;2023-06-22T07:03:52;42.64;38.05;49.15;;
37223;Laerm;28026;48.562;14.440;2023-06-22T07:06:24;43.81;38.52;64.37;;
37223;Laerm;28026;48.562;14.440;2023-06-22T07:08:59;43.02;38.37;56.54;;
37223;Laerm;28026;48.562;14.440;2023-06-22T07:11:31;42.88;36.91;65.63;;
37223;Laerm;28026;48.562;14.440;2023-06-22T07:14:02;41.85;37.32;58.50;;
37223;Laerm;28026;48.562;14.440;2023-06-22T07:16:32;42.72;37.35;56.51;;
37223;Laerm;28026;48.562;14.440;2023-06-22T07:19:03;41.04;36.91;55.59;;
37223;Laerm;28026;48.562;14.440;2023-06-22T07:21:34;41.14;37.52;49.06;;
37223;Laerm;28026;48.562;14.440;2023-06-22T07:24:06;40.96;37.12;57.51;;
37223;Laerm;28026;48.562;14.440;2023-06-22T07:26:37;42.10;37.88;53.50;;
37223;Laerm;28026;48.562;14.440;2023-06-22T07:29:08;40.67;34.69;56.08;;
37223;Laerm;28026;48.562;14.440;2023-06-22T07:31:39;40.71;36.69;55.19;;
37223;Laerm;28026;48.562;14.440;2023-06-22T07:34:11;41.73;37.32;50.08;;
37223;Laerm;28026;48.562;14.440;2023-06-22T07:36:43;40.70;36.77;56.74;;
37223;Laerm;28026;48.562;14.440;2023-06-22T07:39:14;41.01;37.32;54.04;;
37223;Laerm;28026;48.562;14.440;2023-06-22T07:41:45;40.24;35.04;59.17;;
37223;Laerm;28026;48.562;14.440;2023-06-22T07:44:16;40.29;36.69;51.03;;
37223;Laerm;28026;48.562;14.440;2023-06-22T07:46:47;41.26;35.66;54.94;;
37223;Laerm;28026;48.562;14.440;2023-06-22T07:49:17;41.45;37.32;58.27;;
37223;Laerm;28026;48.562;14.440;2023-06-22T07:51:48;47.45;36.45;70.94;;
37223;Laerm;28026;48.562;14.440;2023-06-22T07:54:19;42.01;36.91;54.36;;
37223;Laerm;28026;48.562;14.440;2023-06-22T07:56:50;41.06;37.52;58.59;;
37223;Laerm;28026;48.562;14.440;2023-06-22T07:59:20;44.23;36.69;75.54;;
37223;Laerm;28026;48.562;14.440;2023-06-22T08:01:51;42.97;38.52;61.89;;
37223;Laerm;28026;48.562;14.440;2023-06-22T08:04:22;43.02;38.81;64.89;;
37223;Laerm;28026;48.562;14.440;2023-06-22T08:06:53;41.41;37.12;51.78;;
37223;Laerm;28026;48.562;14.440;2023-06-22T08:09:24;40.74;36.69;53.59;;
37223;Laerm;28026;48.562;14.440;2023-06-22T08:11:55;40.76;36.91;60.46;;
37223;Laerm;28026;48.562;14.440;2023-06-22T08:14:29;41.90;35.66;54.80;;
37223;Laerm;28026;48.562;14.440;2023-06-22T08:17:00;41.58;37.70;55.39;;
37223;Laerm;28026;48.562;14.440;2023-06-22T08:19:31;40.91;36.91;52.73;;
37223;Laerm;28026;48.562;14.440;2023-06-22T08:22:02;41.49;36.91;62.09;;
37223;Laerm;28026;48.562;14.440;2023-06-22T08:24:33;40.62;36.45;53.49;;
37223;Laerm;28026;48.562;14.440;2023-06-22T08:27:07;40.90;36.91;48.60;;
37223;Laerm;28026;48.562;14.440;2023-06-22T08:29:40;40.81;35.04;59.37;;
37223;Laerm;28026;48.562;14.440;2023-06-22T08:32:15;41.43;36.45;58.64;;
37223;Laerm;28026;48.562;14.440;2023-06-22T08:34:46;40.45;35.94;52.64;;
37223;Laerm;28026;48.562;14.440;2023-06-22T08:37:17;40.65;35.94;63.20;;
37223;Laerm;28026;48.562;14.440;2023-06-22T08:39:47;41.63;36.69;54.66;;
37223;Laerm;28026;48.562;14.440;2023-06-22T08:42:18;40.37;35.04;48.83;;
37223;Laerm;28026;48.562;14.440;2023-06-22T08:44:50;40.49;35.66;65.27;;
37223;Laerm;28026;48.562;14.440;2023-06-22T08:47:20;40.63;35.66;64.95;;
37223;Laerm;28026;48.562;14.440;2023-06-22T08:49:52;41.64;36.20;59.85;;
37223;Laerm;28026;48.562;14.440;2023-06-22T08:52:23;41.82;35.94;53.80;;
37223;Laerm;28026;48.562;14.440;2023-06-22T08:54:54;40.65;35.04;59.62;;
37223;Laerm;28026;48.562;14.440;2023-06-22T08:57:25;43.13;38.05;57.49;;
37223;Laerm;28026;48.562;14.440;2023-06-22T08:59:56;47.55;36.34;75.27;;
37223;Laerm;28026;48.562;14.440;2023-06-22T09:02:29;42.04;36.91;57.75;;
37223;Laerm;28026;48.562;14.440;2023-06-22T09:05:03;40.74;35.66;55.47;;
37223;Laerm;28026;48.562;14.440;2023-06-22T09:07:34;42.94;37.70;61.98;;
37223;Laerm;28026;48.562;14.440;2023-06-22T09:10:06;44.21;36.91;57.81;;
37223;Laerm;28026;48.562;14.440;2023-06-22T09:12:37;47.39;38.52;68.63;;
37223;Laerm;28026;48.562;14.440;2023-06-22T09:15:09;40.50;35.04;53.87;;
37223;Laerm;28026;48.562;14.440;2023-06-22T09:17:41;44.88;35.04;71.79;;
37223;Laerm;28026;48.562;14.440;2023-06-22T09:20:12;41.91;37.32;57.92;;
37223;Laerm;28026;48.562;14.440;2023-06-22T09:22:43;41.03;35.66;63.06;;
37223;Laerm;28026;48.562;14.440;2023-06-22T09:25:14;43.30;38.81;50.83;;
37223;Laerm;28026;48.562;14.440;2023-06-22T09:27:45;43.46;39.08;54.18;;
37223;Laerm;28026;48.562;14.440;2023-06-22T09:30:15;42.22;35.04;56.34;;
37223;Laerm;28026;48.562;14.440;2023-06-22T09:32:46;42.02;36.69;58.24;;
37223;Laerm;28026;48.562;14.440;2023-06-22T09:35:17;45.47;35.66;77.07;;
37223;Laerm;28026;48.562;14.440;2023-06-22T09:37:48;42.49;37.32;56.90;;
37223;Laerm;28026;48.562;14.440;2023-06-22T09:40:19;42.87;37.70;47.30;;
37223;Laerm;28026;48.562;14.440;2023-06-22T09:42:50;41.99;35.94;56.56;;
37223;Laerm;28026;48.562;14.440;2023-06-22T09:45:21;41.45;36.91;48.83;;
37223;Laerm;28026;48.562;14.440;2023-06-22T09:47:52;41.35;37.32;52.24;;
37223;Laerm;28026;48.562;14.440;2023-06-22T09:50:22;43.60;37.52;53.99;;
37223;Laerm;28026;48.562;14.440;2023-06-22T09:52:53;41.52;35.94;52.54;;
37223;Laerm;28026;48.562;14.440;2023-06-22T09:55:25;44.39;35.04;60.86;;
37223;Laerm;28026;48.562;14.440;2023-06-22T09:57:56;44.88;36.91;59.72;;
37223;Laerm;28026;48.562;14.440;2023-06-22T10:00:27;42.32;36.20;62.65;;
37223;Laerm;28026;48.562;14.440;2023-06-22T10:02:57;42.75;37.52;49.69;;
37223;Laerm;28026;48.562;14.440;2023-06-22T10:05:28;41.65;35.66;47.88;;
37223;Laerm;28026;48.562;14.440;2023-06-22T10:07:59;40.56;34.69;60.47;;
37223;Laerm;28026;48.562;14.440;2023-06-22T10:10:30;43.62;35.36;64.63;;
37223;Laerm;28026;48.562;14.440;2023-06-22T10:13:10;42.73;33.44;64.43;;
37223;Laerm;28026;48.562;14.440;2023-06-22T10:15:42;43.32;36.45;67.06;;
37223;Laerm;28026;48.562;14.440;2023-06-22T10:18:13;51.90;36.45;77.33;;
37223;Laerm;28026;48.562;14.440;2023-06-22T10:20:48;45.84;36.91;64.81;;
37223;Laerm;28026;48.562;14.440;2023-06-22T10:23:20;45.70;35.66;66.53;;
37223;Laerm;28026;48.562;14.440;2023-06-22T10:25:51;40.82;34.31;58.50;;
37223;Laerm;28026;48.562;14.440;2023-06-22T10:28:22;40.12;33.44;60.25;;
37223;Laerm;28026;48.562;14.440;2023-06-22T10:30:53;52.09;35.66;76.25;;
37223;Laerm;28026;48.562;14.440;2023-06-22T10:33:23;48.61;39.21;75.13;;
37223;Laerm;28026;48.562;14.440;2023-06-22T10:35:54;43.38;34.31;63.15;;
37223;Laerm;28026;48.562;14.440;2023-06-22T10:38:25;41.61;35.66;58.51;;
37223;Laerm;28026;48.562;14.440;2023-06-22T10:40:56;43.38;36.91;61.34;;
37223;Laerm;28026;48.562;14.440;2023-06-22T10:43:27;44.37;35.94;70.01;;
37223;Laerm;28026;48.562;14.440;2023-06-22T10:45:58;45.90;36.91;68.77;;
37223;Laerm;28026;48.562;14.440;2023-06-22T10:48:28;44.58;35.04;64.79;;
37223;Laerm;28026;48.562;14.440;2023-06-22T10:50:59;40.68;36.91;44.76;;
37223;Laerm;28026;48.562;14.440;2023-06-22T10:53:30;41.25;36.91;45.45;;
37223;Laerm;28026;48.562;14.440;2023-06-22T10:56:01;40.53;34.69;49.38;;
37223;Laerm;28026;48.562;14.440;2023-06-22T10:58:32;50.33;36.91;71.59;;
37223;Laerm;28026;48.562;14.440;2023-06-22T11:01:02;46.20;37.32;70.53;;
37223;Laerm;28026;48.562;14.440;2023-06-22T11:03:33;40.90;35.66;57.84;;
37223;Laerm;28026;48.562;14.440;2023-06-22T11:06:04;39.78;35.36;59.91;;
37223;Laerm;28026;48.562;14.440;2023-06-22T11:08:35;42.48;38.37;56.38;;
37223;Laerm;28026;48.562;14.440;2023-06-22T11:11:06;49.16;36.45;72.44;;
37223;Laerm;28026;48.562;14.440;2023-06-22T11:13:36;47.69;36.45;77.45;;
37223;Laerm;28026;48.562;14.440;2023-06-22T11:16:07;41.78;36.10;56.97;;
37223;Laerm;28026;48.562;14.440;2023-06-22T11:18:38;47.17;36.69;68.59;;
37223;Laerm;28026;48.562;14.440;2023-06-22T11:21:09;58.27;35.36;82.98;;
37223;Laerm;28026;48.562;14.440;2023-06-22T11:23:39;48.33;36.20;71.75;;
37223;Laerm;28026;48.562;14.440;2023-06-22T11:26:10;42.33;35.36;59.15;;
37223;Laerm;28026;48.562;14.440;2023-06-22T11:28:41;41.50;36.20;51.70;;
37223;Laerm;28026;48.562;14.440;2023-06-22T11:31:12;43.08;35.04;51.89;;
37223;Laerm;28026;48.562;14.440;2023-06-22T11:33:42;51.96;36.20;75.41;;
37223;Laerm;28026;48.562;14.440;2023-06-22T11:36:15;43.42;34.31;58.65;;
37223;Laerm;28026;48.562;14.440;2023-06-22T11:38:46;46.75;37.12;72.97;;
37223;Laerm;28026;48.562;14.440;2023-06-22T11:41:17;42.07;36.45;55.63;;
37223;Laerm;28026;48.562;14.440;2023-06-22T11:43:50;44.74;35.36;74.87;;
37223;Laerm;28026;48.562;14.440;2023-06-22T11:46:21;40.27;35.66;50.32;;
37223;Laerm;28026;48.562;14.440;2023-06-22T11:48:52;46.43;37.52;64.86;;
37223;Laerm;28026;48.562;14.440;2023-06-22T11:51:23;43.24;37.52;57.97;;
37223;Laerm;28026;48.562;14.440;2023-06-22T11:53:54;44.47;39.21;64.73;;
37223;Laerm;28026;48.562;14.440;2023-06-22T11:56:24;54.82;35.94;81.17;;
37223;Laerm;28026;48.562;14.440;2023-06-22T11:58:55;58.82;35.66;80.06;;
37223;Laerm;28026;48.562;14.440;2023-06-22T12:01:27;43.92;36.20;59.90;;
37223;Laerm;28026;48.562;14.440;2023-06-22T12:03:58;46.53;36.45;71.16;;
37223;Laerm;28026;48.562;14.440;2023-06-22T12:06:28;44.08;34.69;73.51;;
37223;Laerm;28026;48.562;14.440;2023-06-22T12:08:59;41.29;35.36;53.81;;
37223;Laerm;28026;48.562;14.440;2023-06-22T12:11:30;51.81;36.45;80.79;;
37223;Laerm;28026;48.562;14.440;2023-06-22T12:14:01;49.63;36.69;81.01;;
37223;Laerm;28026;48.562;14.440;2023-06-22T12:16:32;43.50;36.45;64.68;;
37223;Laerm;28026;48.562;14.440;2023-06-22T12:19:03;41.93;34.69;65.62;;
37223;Laerm;28026;48.562;14.440;2023-06-22T12:21:34;48.19;35.04;72.72;;
37223;Laerm;28026;48.562;14.440;2023-06-22T12:24:05;43.68;37.52;65.65;;
37223;Laerm;28026;48.562;14.440;2023-06-22T12:26:36;41.44;35.94;53.49;;
37223;Laerm;28026;48.562;14.440;2023-06-22T12:29:07;42.09;36.45;64.68;;
37223;Laerm;28026;48.562;14.440;2023-06-22T12:31:37;44.25;39.08;60.27;;
37223;Laerm;28026;48.562;14.440;2023-06-22T12:34:10;42.50;35.94;65.11;;
37223;Laerm;28026;48.562;14.440;2023-06-22T12:36:40;51.48;35.94;78.05;;
37223;Laerm;28026;48.562;14.440;2023-06-22T12:39:11;47.16;35.66;70.65;;
37223;Laerm;28026;48.562;14.440;2023-06-22T12:41:42;53.74;35.66;82.27;;
37223;Laerm;28026;48.562;14.440;2023-06-22T12:44:13;59.71;34.31;91.40;;
37223;Laerm;28026;48.562;14.440;2023-06-22T12:46:43;50.28;35.04;75.40;;
37223;Laerm;28026;48.562;14.440;2023-06-22T12:49:14;45.59;36.20;68.42;;
37223;Laerm;28026;48.562;14.440;2023-06-22T12:51:45;43.12;35.36;65.83;;
37223;Laerm;28026;48.562;14.440;2023-06-22T12:54:16;46.06;35.36;73.31;;
37223;Laerm;28026;48.562;14.440;2023-06-22T12:56:47;41.34;35.36;61.57;;
37223;Laerm;28026;48.562;14.440;2023-06-22T12:59:18;47.54;35.94;73.51;;
37223;Laerm;28026;48.562;14.440;2023-06-22T13:01:49;53.47;34.31;78.35;;
37223;Laerm;28026;48.562;14.440;2023-06-22T13:04:20;45.40;34.69;67.88;;
37223;Laerm;28026;48.562;14.440;2023-06-22T13:06:51;44.31;36.45;60.32;;
37223;Laerm;28026;48.562;14.440;2023-06-22T13:09:22;40.98;35.36;63.48;;
37223;Laerm;28026;48.562;14.440;2023-06-22T13:11:53;44.11;35.66;70.34;;
37223;Laerm;28026;48.562;14.440;2023-06-22T13:14:24;44.35;36.45;69.54;;
37223;Laerm;28026;48.562;14.440;2023-06-22T13:16:55;43.01;36.91;65.20;;
37223;Laerm;28026;48.562;14.440;2023-06-22T13:19:26;40.29;35.36;57.90;;
37223;Laerm;28026;48.562;14.440;2023-06-22T13:21:59;40.54;36.20;53.04;;
37223;Laerm;28026;48.562;14.440;2023-06-22T13:24:30;41.59;36.20;60.11;;
37223;Laerm;28026;48.562;14.440;2023-06-22T13:27:01;41.65;36.45;52.69;;
37223;Laerm;28026;48.562;14.440;2023-06-22T13:29:32;43.67;37.70;62.18;;
37223;Laerm;28026;48.562;14.440;2023-06-22T13:32:03;40.92;36.20;49.20;;
37223;Laerm;28026;48.562;14.440;2023-06-22T13:34:34;45.20;36.45;62.92;;
37223;Laerm;28026;48.562;14.440;2023-06-22T13:37:05;44.15;35.66;66.12;;
37223;Laerm;28026;48.562;14.440;2023-06-22T13:39:36;40.15;36.20;47.44;;
37223;Laerm;28026;48.562;14.440;2023-06-22T13:42:07;42.93;32.93;65.88;;
37223;Laerm;28026;48.562;14.440;2023-06-22T13:44:38;38.60;33.44;45.14;;
37223;Laerm;28026;48.562;14.440;2023-06-22T13:47:09;40.47;34.31;55.49;;
37223;Laerm;28026;48.562;14.440;2023-06-22T13:49:40;42.15;36.69;45.23;;
37223;Laerm;28026;48.562;14.440;2023-06-22T13:52:11;51.36;34.31;76.86;;
37223;Laerm;28026;48.562;14.440;2023-06-22T13:54:43;52.05;34.31;75.38;;
37223;Laerm;28026;48.562;14.440;2023-06-22T13:57:14;44.59;34.31;71.44;;